Time,TemperatureF,DewpointF,PressureIn,WindDirection,WindDirectionDegrees,WindSpeedMPH,WindSpeedGustMPH,Humidity,HourlyPrecipIn,Conditions,Clouds,dailyrainin,SolarRadiationWatts/m^2,SoftwareType,DateUTC
2013-01-19 00:02:00,41.0,-6.0,-100.00,West,265,5.0,6.0,13,0.00,,,0.00,0.000000,,2013-01-19 07:02:00,
2013-01-19 00:12:00,41.0,-6.0,-100.00,West,265,5.0,6.0,13,0.00,,,0.00,0.000000,,2013-01-19 07:12:00,
2013-01-19 00:22:00,41.0,-6.0,-100.00,West,265,5.0,6.0,13,0.00,,,0.00,0.000000,,2013-01-19 07:22:00,
2013-01-19 00:32:00,41.0,-6.0,-100.00,West,265,5.0,6.0,13,0.00,,,0.00,0.000000,,2013-01-19 07:32:00,
2013-01-19 00:52:00,40.0,-4.0,-100.00,West,263,5.0,8.0,15,0.00,,,0.00,0.000000,,2013-01-19 07:52:00,
2013-01-19 01:02:00,40.0,-4.0,-100.00,West,263,5.0,8.0,15,0.00,,,0.00,0.000000,,2013-01-19 08:02:00,
2013-01-19 01:12:00,40.0,-4.0,-100.00,West,263,5.0,8.0,15,0.00,,,0.00,0.000000,,2013-01-19 08:12:00,
2013-01-19 01:22:00,40.0,-4.0,-100.00,West,263,5.0,8.0,15,0.00,,,0.00,0.000000,,2013-01-19 08:22:00,
2013-01-19 01:32:00,40.0,-4.0,-100.00,West,263,5.0,8.0,15,0.00,,,0.00,0.000000,,2013-01-19 08:32:00,
2013-01-19 01:53:00,40.0,-8.0,-100.00,West,264,5.0,8.0,12,0.00,,,0.00,0.000000,,2013-01-19 08:53:00,
2013-01-19 02:02:00,40.0,-8.0,-100.00,West,264,5.0,8.0,12,0.00,,,0.00,0.000000,,2013-01-19 09:02:00,
2013-01-19 02:12:00,40.0,-8.0,-100.00,West,264,5.0,8.0,12,0.00,,,0.00,0.000000,,2013-01-19 09:12:00,
2013-01-19 02:22:00,40.0,-8.0,-100.00,West,264,5.0,8.0,12,0.00,,,0.00,0.000000,,2013-01-19 09:22:00,
2013-01-19 02:32:00,40.0,-8.0,-100.00,West,264,5.0,8.0,12,0.00,,,0.00,0.000000,,2013-01-19 09:32:00,
2013-01-19 02:53:00,41.0,-13.0,-100.00,West,268,5.0,8.0,9,0.00,,,-99.99,0.000000,,2013-01-19 09:53:00,
2013-01-19 03:02:00,41.0,-13.0,-100.00,West,268,5.0,8.0,9,0.00,,,-99.99,0.000000,,2013-01-19 10:02:00,
2013-01-19 04:02:00,41.0,-18.0,-100.00,West,261,5.0,9.0,7,0.00,,,0.00,0.000000,,2013-01-19 11:02:00,
2013-01-19 06:02:00,42.0,11.0,-100.00,WSW,258,6.0,9.0,28,0.00,,,-99.99,0.000000,,2013-01-19 13:02:00,
2013-01-19 06:12:00,42.0,11.0,-100.00,WSW,258,6.0,9.0,28,0.00,,,-99.99,0.000000,,2013-01-19 13:12:00,
2013-01-19 06:22:00,42.0,11.0,-100.00,WSW,258,6.0,9.0,28,0.00,,,-99.99,0.000000,,2013-01-19 13:22:00,
2013-01-19 06:33:00,42.0,11.0,-100.00,WSW,258,6.0,9.0,28,0.00,,,-99.99,0.000000,,2013-01-19 13:33:00,
2013-01-19 07:02:00,40.0,13.0,-100.00,West,263,5.0,9.0,33,0.00,,,0.00,0.000000,,2013-01-19 14:02:00,
2013-01-19 07:12:00,40.0,13.0,-100.00,West,263,5.0,9.0,33,0.00,,,0.00,0.000000,,2013-01-19 14:12:00,
2013-01-19 07:22:00,40.0,13.0,-100.00,West,263,5.0,9.0,33,0.00,,,0.00,0.000000,,2013-01-19 14:22:00,
2013-01-19 07:33:00,40.0,13.0,-100.00,West,263,5.0,9.0,33,0.00,,,0.00,0.000000,,2013-01-19 14:33:00,
2013-01-19 08:03:00,42.0,16.0,-100.00,West,270,5.0,9.0,34,0.00,,,0.00,4.000000,,2013-01-19 15:03:00,
2013-01-19 08:12:00,42.0,16.0,-100.00,West,270,5.0,9.0,34,0.00,,,0.00,4.000000,,2013-01-19 15:12:00,
2013-01-19 08:22:00,42.0,16.0,-100.00,West,270,5.0,9.0,34,0.00,,,0.00,4.000000,,2013-01-19 15:22:00,
2013-01-19 08:33:00,42.0,16.0,-100.00,West,270,5.0,9.0,34,0.00,,,0.00,4.000000,,2013-01-19 15:33:00,
2013-01-19 09:03:00,52.0,21.0,-100.00,WSW,255,4.0,7.0,29,0.00,,,0.00,159.000000,,2013-01-19 16:03:00,
2013-01-19 10:02:00,56.0,22.0,-100.00,WSW,238,3.0,7.0,26,0.00,,,-99.99,419.000000,,2013-01-19 17:02:00,
2013-01-19 10:15:00,56.0,22.0,-100.00,WSW,238,3.0,7.0,26,0.00,,,-99.99,419.000000,,2013-01-19 17:15:00,
2013-01-19 10:26:00,56.0,22.0,-100.00,WSW,238,3.0,7.0,26,0.00,,,-99.99,419.000000,,2013-01-19 17:26:00,
2013-01-19 10:33:00,56.0,22.0,-100.00,WSW,238,3.0,7.0,26,0.00,,,-99.99,419.000000,,2013-01-19 17:33:00,
2013-01-19 10:54:00,61.0,23.0,-100.00,SW,235,3.0,6.0,23,0.00,,,0.00,639.000000,,2013-01-19 17:54:00,
2013-01-19 11:13:00,61.0,23.0,-100.00,SW,235,3.0,6.0,23,0.00,,,0.00,639.000000,,2013-01-19 18:13:00,
2013-01-19 11:25:00,61.0,23.0,-100.00,SW,235,3.0,6.0,23,0.00,,,0.00,639.000000,,2013-01-19 18:25:00,
2013-01-19 11:33:00,61.0,23.0,-100.00,SW,235,3.0,6.0,23,0.00,,,0.00,639.000000,,2013-01-19 18:33:00,
2013-01-19 12:05:00,59.0,19.0,-100.00,SSW,211,3.0,6.0,21,0.00,,,-99.99,654.000000,,2013-01-19 19:05:00,
2013-01-19 12:56:00,61.0,23.0,-100.00,SSW,199,3.0,10.0,23,0.00,,,0.00,878.000000,,2013-01-19 19:56:00,
2013-01-19 13:08:00,61.0,23.0,-100.00,SSW,199,3.0,10.0,23,0.00,,,0.00,878.000000,,2013-01-19 20:08:00,
2013-01-19 13:17:00,61.0,23.0,-100.00,SSW,199,3.0,10.0,23,0.00,,,0.00,878.000000,,2013-01-19 20:17:00,
2013-01-19 13:24:00,61.0,23.0,-100.00,SSW,199,3.0,10.0,23,0.00,,,0.00,878.000000,,2013-01-19 20:24:00,
2013-01-19 13:34:00,61.0,23.0,-100.00,SSW,199,3.0,10.0,23,0.00,,,0.00,878.000000,,2013-01-19 20:34:00,
2013-01-19 14:05:00,59.0,22.0,-100.00,South,175,4.0,11.0,24,0.00,,,0.00,878.000000,,2013-01-19 21:05:00,
2013-01-19 14:13:00,59.0,22.0,-100.00,South,175,4.0,11.0,24,0.00,,,0.00,878.000000,,2013-01-19 21:13:00,
2013-01-19 14:34:00,59.0,22.0,-100.00,South,175,4.0,11.0,24,0.00,,,0.00,878.000000,,2013-01-19 21:34:00,
2013-01-19 14:59:00,57.0,22.0,-100.00,South,181,5.0,11.0,25,0.00,,,0.00,795.000000,,2013-01-19 21:59:00,
2013-01-19 15:09:00,57.0,22.0,-100.00,South,181,5.0,11.0,25,0.00,,,0.00,795.000000,,2013-01-19 22:09:00,
2013-01-19 15:15:00,57.0,22.0,-100.00,South,181,5.0,11.0,25,0.00,,,0.00,795.000000,,2013-01-19 22:15:00,
2013-01-19 15:24:00,57.0,22.0,-100.00,South,181,5.0,11.0,25,0.00,,,0.00,795.000000,,2013-01-19 22:24:00,
2013-01-19 15:33:00,57.0,22.0,-100.00,South,181,5.0,11.0,25,0.00,,,0.00,795.000000,,2013-01-19 22:33:00,
2013-01-19 16:14:00,56.0,20.0,-100.00,SSW,201,4.0,11.0,24,0.00,,,-99.99,636.000000,,2013-01-19 23:14:00,
2013-01-19 16:24:00,56.0,20.0,-100.00,SSW,201,4.0,11.0,24,0.00,,,-99.99,636.000000,,2013-01-19 23:24:00,
2013-01-19 16:33:00,56.0,20.0,-100.00,SSW,201,4.0,11.0,24,0.00,,,-99.99,636.000000,,2013-01-19 23:33:00,
2013-01-19 17:06:00,53.0,18.0,-100.00,SSE,166,4.0,11.0,25,0.00,,,0.00,417.000000,,2013-01-20 00:06:00,
2013-01-19 17:24:00,53.0,18.0,-100.00,SSE,166,4.0,11.0,25,0.00,,,0.00,417.000000,,2013-01-20 00:24:00,
2013-01-19 17:33:00,53.0,18.0,-100.00,SSE,166,4.0,11.0,25,0.00,,,0.00,417.000000,,2013-01-20 00:33:00,
2013-01-19 18:03:00,47.0,18.0,-100.00,South,181,3.0,6.0,31,0.00,,,0.00,142.000000,,2013-01-20 01:03:00,
2013-01-19 18:16:00,47.0,18.0,-100.00,South,181,3.0,6.0,31,0.00,,,0.00,142.000000,,2013-01-20 01:16:00,
2013-01-19 18:24:00,47.0,18.0,-100.00,South,181,3.0,6.0,31,0.00,,,0.00,142.000000,,2013-01-20 01:24:00,
2013-01-19 18:33:00,47.0,18.0,-100.00,South,181,3.0,6.0,31,0.00,,,0.00,142.000000,,2013-01-20 01:33:00,
2013-01-19 19:03:00,44.0,13.0,-100.00,ENE,59,3.0,5.0,28,0.00,,,0.00,2.000000,,2013-01-20 02:03:00,
2013-01-19 19:13:00,44.0,13.0,-100.00,ENE,59,3.0,5.0,28,0.00,,,0.00,2.000000,,2013-01-20 02:13:00,
2013-01-19 19:24:00,44.0,13.0,-100.00,ENE,59,3.0,5.0,28,0.00,,,0.00,2.000000,,2013-01-20 02:24:00,
2013-01-19 19:34:00,44.0,13.0,-100.00,ENE,59,3.0,5.0,28,0.00,,,0.00,2.000000,,2013-01-20 02:34:00,
2013-01-19 20:06:00,45.0,11.0,-100.00,NE,38,5.0,7.0,25,0.00,,,0.00,0.000000,,2013-01-20 03:06:00,
2013-01-19 20:13:00,45.0,11.0,-100.00,NE,38,5.0,7.0,25,0.00,,,0.00,0.000000,,2013-01-20 03:13:00,
2013-01-19 20:23:00,45.0,11.0,-100.00,NE,38,5.0,7.0,25,0.00,,,0.00,0.000000,,2013-01-20 03:23:00,
2013-01-19 20:33:00,45.0,11.0,-100.00,NE,38,5.0,7.0,25,0.00,,,0.00,0.000000,,2013-01-20 03:33:00,
2013-01-19 20:57:00,44.0,11.0,-100.00,NE,44,5.0,8.0,26,0.00,,,0.00,0.000000,,2013-01-20 03:57:00,
2013-01-19 21:04:00,44.0,11.0,-100.00,NE,44,5.0,8.0,26,0.00,,,0.00,0.000000,,2013-01-20 04:04:00,
2013-01-19 21:14:00,44.0,11.0,-100.00,NE,44,5.0,8.0,26,0.00,,,0.00,0.000000,,2013-01-20 04:14:00,
2013-01-19 21:23:00,44.0,11.0,-100.00,NE,44,5.0,8.0,26,0.00,,,0.00,0.000000,,2013-01-20 04:23:00,
2013-01-19 21:33:00,44.0,11.0,-100.00,NE,44,5.0,8.0,26,0.00,,,0.00,0.000000,,2013-01-20 04:33:00,
2013-01-19 21:56:00,44.0,13.0,-100.00,NE,45,5.0,7.0,28,0.00,,,-99.99,0.000000,,2013-01-20 04:56:00,
2013-01-19 22:03:00,44.0,13.0,-100.00,NE,45,5.0,7.0,28,0.00,,,-99.99,0.000000,,2013-01-20 05:03:00,
2013-01-19 22:12:00,44.0,13.0,-100.00,NE,45,5.0,7.0,28,0.00,,,-99.99,0.000000,,2013-01-20 05:12:00,
2013-01-19 22:22:00,44.0,13.0,-100.00,NE,45,5.0,7.0,28,0.00,,,-99.99,0.000000,,2013-01-20 05:22:00,
2013-01-19 22:32:00,44.0,13.0,-100.00,NE,45,5.0,7.0,28,0.00,,,-99.99,0.000000,,2013-01-20 05:32:00,
2013-01-19 23:02:00,43.0,13.0,-100.00,NE,47,6.0,10.0,29,0.00,,,0.00,0.000000,,2013-01-20 06:02:00,
2013-01-19 23:12:00,43.0,13.0,-100.00,NE,47,6.0,10.0,29,0.00,,,0.00,0.000000,,2013-01-20 06:12:00,
2013-01-19 23:22:00,43.0,13.0,-100.00,NE,47,6.0,10.0,29,0.00,,,0.00,0.000000,,2013-01-20 06:22:00,
2013-01-19 23:32:00,43.0,13.0,-100.00,NE,47,6.0,10.0,29,0.00,,,0.00,0.000000,,2013-01-20 06:32:00,
2013-01-19 23:53:00,43.0,12.0,-100.00,ENE,57,5.0,9.0,28,0.00,,,-99.99,0.000000,,2013-01-20 06:53:00,